sensor_id;sensor_type;location;lat;lon;timestamp;P1;durP1;ratioP1;P2;durP2;ratioP2
9848;SDS011;4963;51.444;6.528;2023-02-10T00:01:59;36.97;;;25.43;;
9848;SDS011;4963;51.444;6.528;2023-02-10T00:04:26;37.83;;;24.50;;
9848;SDS011;4963;51.444;6.528;2023-02-10T00:06:52;42.43;;;26.73;;
9848;SDS011;4963;51.444;6.528;2023-02-10T00:09:19;45.03;;;25.67;;
9848;SDS011;4963;51.444;6.528;2023-02-10T00:11:46;37.33;;;25.07;;
9848;SDS011;4963;51.444;6.528;2023-02-10T00:14:25;40.70;;;26.23;;
9848;SDS011;4963;51.444;6.528;2023-02-10T00:16:53;35.43;;;24.83;;
9848;SDS011;4963;51.444;6.528;2023-02-10T00:19:23;42.23;;;26.20;;
9848;SDS011;4963;51.444;6.528;2023-02-10T00:21:51;37.63;;;25.37;;
9848;SDS011;4963;51.444;6.528;2023-02-10T00:24:18;41.00;;;25.40;;
9848;SDS011;4963;51.444;6.528;2023-02-10T00:26:45;41.73;;;25.73;;
9848;SDS011;4963;51.444;6.528;2023-02-10T00:29:13;40.30;;;26.57;;
9848;SDS011;4963;51.444;6.528;2023-02-10T00:31:40;40.07;;;26.40;;
9848;SDS011;4963;51.444;6.528;2023-02-10T00:34:08;38.73;;;25.40;;
9848;SDS011;4963;51.444;6.528;2023-02-10T00:36:37;35.73;;;25.47;;
9848;SDS011;4963;51.444;6.528;2023-02-10T00:39:04;41.13;;;26.53;;
9848;SDS011;4963;51.444;6.528;2023-02-10T00:41:32;43.60;;;26.10;;
9848;SDS011;4963;51.444;6.528;2023-02-10T00:43:59;45.73;;;28.13;;
9848;SDS011;4963;51.444;6.528;2023-02-10T00:46:25;41.93;;;27.30;;
9848;SDS011;4963;51.444;6.528;2023-02-10T00:48:52;39.73;;;24.73;;
9848;SDS011;4963;51.444;6.528;2023-02-10T00:51:19;42.00;;;26.23;;
9848;SDS011;4963;51.444;6.528;2023-02-10T00:53:47;41.20;;;28.90;;
9848;SDS011;4963;51.444;6.528;2023-02-10T00:56:16;41.17;;;25.53;;
9848;SDS011;4963;51.444;6.528;2023-02-10T00:58:44;37.53;;;25.17;;
9848;SDS011;4963;51.444;6.528;2023-02-10T01:01:11;38.57;;;25.57;;
9848;SDS011;4963;51.444;6.528;2023-02-10T01:03:39;39.77;;;26.43;;
9848;SDS011;4963;51.444;6.528;2023-02-10T01:06:06;39.80;;;26.13;;
9848;SDS011;4963;51.444;6.528;2023-02-10T01:08:34;40.73;;;26.97;;
9848;SDS011;4963;51.444;6.528;2023-02-10T01:11:03;43.47;;;29.17;;
9848;SDS011;4963;51.444;6.528;2023-02-10T01:13:32;44.03;;;27.77;;
9848;SDS011;4963;51.444;6.528;2023-02-10T01:15:59;39.10;;;26.63;;
9848;SDS011;4963;51.444;6.528;2023-02-10T01:18:27;38.67;;;25.37;;
9848;SDS011;4963;51.444;6.528;2023-02-10T01:20:54;37.23;;;25.93;;
9848;SDS011;4963;51.444;6.528;2023-02-10T01:23:20;39.47;;;25.67;;
9848;SDS011;4963;51.444;6.528;2023-02-10T01:25:47;43.07;;;28.50;;
9848;SDS011;4963;51.444;6.528;2023-02-10T01:28:16;43.43;;;28.23;;
9848;SDS011;4963;51.444;6.528;2023-02-10T01:30:42;43.37;;;27.90;;
9848;SDS011;4963;51.444;6.528;2023-02-10T01:33:09;43.67;;;27.80;;
9848;SDS011;4963;51.444;6.528;2023-02-10T01:35:37;45.57;;;30.80;;
9848;SDS011;4963;51.444;6.528;2023-02-10T01:38:04;43.67;;;27.20;;
9848;SDS011;4963;51.444;6.528;2023-02-10T01:40:31;41.60;;;28.57;;
9848;SDS011;4963;51.444;6.528;2023-02-10T01:42:58;39.60;;;26.17;;
9848;SDS011;4963;51.444;6.528;2023-02-10T01:45:27;38.73;;;27.83;;
9848;SDS011;4963;51.444;6.528;2023-02-10T01:47:56;48.23;;;27.27;;
9848;SDS011;4963;51.444;6.528;2023-02-10T01:50:25;45.73;;;27.53;;
9848;SDS011;4963;51.444;6.528;2023-02-10T01:52:54;44.87;;;27.57;;
9848;SDS011;4963;51.444;6.528;2023-02-10T01:55:24;43.60;;;28.07;;
9848;SDS011;4963;51.444;6.528;2023-02-10T01:57:54;42.27;;;27.67;;
9848;SDS011;4963;51.444;6.528;2023-02-10T02:00:22;46.83;;;30.03;;
9848;SDS011;4963;51.444;6.528;2023-02-10T02:02:52;50.73;;;28.23;;
9848;SDS011;4963;51.444;6.528;2023-02-10T02:05:21;43.07;;;27.30;;
9848;SDS011;4963;51.444;6.528;2023-02-10T02:07:54;45.67;;;28.43;;
9848;SDS011;4963;51.444;6.528;2023-02-10T02:10:25;44.17;;;28.87;;
9848;SDS011;4963;51.444;6.528;2023-02-10T02:12:58;41.50;;;28.50;;
9848;SDS011;4963;51.444;6.528;2023-02-10T02:15:30;40.60;;;28.00;;
9848;SDS011;4963;51.444;6.528;2023-02-10T02:18:06;45.53;;;28.70;;
9848;SDS011;4963;51.444;6.528;2023-02-10T02:24:07;45.07;;;29.33;;
9848;SDS011;4963;51.444;6.528;2023-02-10T02:27:02;42.37;;;29.00;;
9848;SDS011;4963;51.444;6.528;2023-02-10T02:29:58;43.30;;;28.70;;
9848;SDS011;4963;51.444;6.528;2023-02-10T02:32:50;43.33;;;27.40;;
9848;SDS011;4963;51.444;6.528;2023-02-10T02:35:23;46.03;;;30.27;;
9848;SDS011;4963;51.444;6.528;2023-02-10T02:37:52;41.57;;;28.20;;
9848;SDS011;4963;51.444;6.528;2023-02-10T02:40:20;50.10;;;30.50;;
9848;SDS011;4963;51.444;6.528;2023-02-10T02:42:47;50.93;;;31.73;;
9848;SDS011;4963;51.444;6.528;2023-02-10T02:45:16;46.93;;;31.17;;
9848;SDS011;4963;51.444;6.528;2023-02-10T02:50:37;47.07;;;30.17;;
9848;SDS011;4963;51.444;6.528;2023-02-10T02:53:09;47.80;;;31.60;;
9848;SDS011;4963;51.444;6.528;2023-02-10T02:55:48;43.33;;;29.87;;
9848;SDS011;4963;51.444;6.528;2023-02-10T02:58:20;48.97;;;29.83;;
9848;SDS011;4963;51.444;6.528;2023-02-10T03:00:54;45.13;;;29.87;;
9848;SDS011;4963;51.444;6.528;2023-02-10T03:03:31;42.67;;;27.87;;
9848;SDS011;4963;51.444;6.528;2023-02-10T03:05:58;51.60;;;30.60;;
9848;SDS011;4963;51.444;6.528;2023-02-10T03:08:25;49.37;;;30.60;;
9848;SDS011;4963;51.444;6.528;2023-02-10T03:10:53;46.00;;;29.23;;
9848;SDS011;4963;51.444;6.528;2023-02-10T03:13:20;45.17;;;30.00;;
9848;SDS011;4963;51.444;6.528;2023-02-10T03:15:47;43.13;;;29.20;;
9848;SDS011;4963;51.444;6.528;2023-02-10T03:18:14;45.23;;;28.47;;
9848;SDS011;4963;51.444;6.528;2023-02-10T03:20:42;44.73;;;28.97;;
9848;SDS011;4963;51.444;6.528;2023-02-10T03:23:09;46.23;;;29.60;;
9848;SDS011;4963;51.444;6.528;2023-02-10T03:25:36;49.10;;;30.00;;
9848;SDS011;4963;51.444;6.528;2023-02-10T03:28:03;51.27;;;31.50;;
9848;SDS011;4963;51.444;6.528;2023-02-10T03:30:31;48.77;;;30.33;;
9848;SDS011;4963;51.444;6.528;2023-02-10T03:32:58;45.57;;;28.93;;
9848;SDS011;4963;51.444;6.528;2023-02-10T03:35:25;44.93;;;27.53;;
9848;SDS011;4963;51.444;6.528;2023-02-10T03:37:53;42.70;;;28.67;;
9848;SDS011;4963;51.444;6.528;2023-02-10T03:40:20;41.40;;;27.93;;
9848;SDS011;4963;51.444;6.528;2023-02-10T03:42:47;37.83;;;26.10;;
9848;SDS011;4963;51.444;6.528;2023-02-10T03:45:14;41.13;;;27.73;;
9848;SDS011;4963;51.444;6.528;2023-02-10T03:47:41;43.57;;;28.20;;
9848;SDS011;4963;51.444;6.528;2023-02-10T03:50:08;41.73;;;27.03;;
9848;SDS011;4963;51.444;6.528;2023-02-10T03:52:35;44.27;;;26.87;;
9848;SDS011;4963;51.444;6.528;2023-02-10T03:55:03;39.77;;;25.80;;
9848;SDS011;4963;51.444;6.528;2023-02-10T03:57:30;43.70;;;27.83;;
9848;SDS011;4963;51.444;6.528;2023-02-10T03:59:57;41.73;;;26.63;;
9848;SDS011;4963;51.444;6.528;2023-02-10T04:02:24;41.43;;;28.20;;
9848;SDS011;4963;51.444;6.528;2023-02-10T04:04:51;47.60;;;28.87;;
9848;SDS011;4963;51.444;6.528;2023-02-10T04:07:18;41.07;;;27.30;;
9848;SDS011;4963;51.444;6.528;2023-02-10T04:09:45;45.57;;;28.63;;
9848;SDS011;4963;51.444;6.528;2023-02-10T04:12:13;41.53;;;26.87;;
9848;SDS011;4963;51.444;6.528;2023-02-10T04:14:40;42.27;;;27.77;;
9848;SDS011;4963;51.444;6.528;2023-02-10T04:17:07;44.20;;;28.83;;
9848;SDS011;4963;51.444;6.528;2023-02-10T04:19:33;40.17;;;26.23;;
9848;SDS011;4963;51.444;6.528;2023-02-10T04:22:00;40.83;;;28.07;;
9848;SDS011;4963;51.444;6.528;2023-02-10T04:24:27;43.70;;;28.37;;
9848;SDS011;4963;51.444;6.528;2023-02-10T04:26:54;50.67;;;29.67;;
9848;SDS011;4963;51.444;6.528;2023-02-10T04:29:23;42.17;;;27.70;;
9848;SDS011;4963;51.444;6.528;2023-02-10T04:31:49;44.90;;;28.00;;
9848;SDS011;4963;51.444;6.528;2023-02-10T04:34:16;42.63;;;27.23;;
9848;SDS011;4963;51.444;6.528;2023-02-10T04:36:43;47.37;;;29.37;;
9848;SDS011;4963;51.444;6.528;2023-02-10T04:39:10;46.33;;;29.53;;
9848;SDS011;4963;51.444;6.528;2023-02-10T04:41:37;53.20;;;31.63;;
9848;SDS011;4963;51.444;6.528;2023-02-10T04:44:04;46.27;;;29.53;;
9848;SDS011;4963;51.444;6.528;2023-02-10T04:46:33;42.03;;;29.37;;
9848;SDS011;4963;51.444;6.528;2023-02-10T04:49:00;48.63;;;31.33;;
9848;SDS011;4963;51.444;6.528;2023-02-10T04:51:26;52.60;;;33.37;;
9848;SDS011;4963;51.444;6.528;2023-02-10T04:53:53;54.30;;;33.03;;
9848;SDS011;4963;51.444;6.528;2023-02-10T04:56:20;48.77;;;30.07;;
9848;SDS011;4963;51.444;6.528;2023-02-10T04:58:47;46.07;;;28.87;;
9848;SDS011;4963;51.444;6.528;2023-02-10T05:01:14;49.13;;;30.10;;
9848;SDS011;4963;51.444;6.528;2023-02-10T05:03:42;48.17;;;32.37;;
9848;SDS011;4963;51.444;6.528;2023-02-10T05:06:10;66.63;;;43.60;;
9848;SDS011;4963;51.444;6.528;2023-02-10T05:08:39;62.30;;;39.83;;
9848;SDS011;4963;51.444;6.528;2023-02-10T05:11:07;93.60;;;59.63;;
9848;SDS011;4963;51.444;6.528;2023-02-10T05:13:34;59.37;;;38.27;;
9848;SDS011;4963;51.444;6.528;2023-02-10T05:16:02;48.43;;;31.33;;
9848;SDS011;4963;51.444;6.528;2023-02-10T05:18:29;62.87;;;43.73;;
9848;SDS011;4963;51.444;6.528;2023-02-10T05:20:57;53.63;;;31.93;;
9848;SDS011;4963;51.444;6.528;2023-02-10T05:23:25;45.87;;;30.90;;
9848;SDS011;4963;51.444;6.528;2023-02-10T05:25:52;48.30;;;30.07;;
9848;SDS011;4963;51.444;6.528;2023-02-10T05:28:19;49.63;;;31.23;;
9848;SDS011;4963;51.444;6.528;2023-02-10T05:30:47;44.73;;;28.77;;
9848;SDS011;4963;51.444;6.528;2023-02-10T05:33:14;45.87;;;30.43;;
9848;SDS011;4963;51.444;6.528;2023-02-10T05:35:41;47.80;;;29.73;;
9848;SDS011;4963;51.444;6.528;2023-02-10T05:38:09;46.03;;;29.60;;
9848;SDS011;4963;51.444;6.528;2023-02-10T05:40:36;46.63;;;31.57;;
9848;SDS011;4963;51.444;6.528;2023-02-10T05:43:03;44.33;;;30.40;;
9848;SDS011;4963;51.444;6.528;2023-02-10T05:45:31;46.70;;;30.90;;
9848;SDS011;4963;51.444;6.528;2023-02-10T05:47:58;44.33;;;31.43;;
9848;SDS011;4963;51.444;6.528;2023-02-10T05:50:25;46.80;;;31.50;;
9848;SDS011;4963;51.444;6.528;2023-02-10T05:52:52;55.13;;;35.77;;
9848;SDS011;4963;51.444;6.528;2023-02-10T05:55:20;53.03;;;35.10;;
9848;SDS011;4963;51.444;6.528;2023-02-10T05:57:47;44.23;;;30.37;;
9848;SDS011;4963;51.444;6.528;2023-02-10T06:00:15;48.17;;;32.43;;
9848;SDS011;4963;51.444;6.528;2023-02-10T06:02:43;65.73;;;41.73;;
9848;SDS011;4963;51.444;6.528;2023-02-10T06:05:10;52.13;;;32.90;;
9848;SDS011;4963;51.444;6.528;2023-02-10T06:07:37;47.37;;;29.80;;
9848;SDS011;4963;51.444;6.528;2023-02-10T06:10:04;47.07;;;30.67;;
9848;SDS011;4963;51.444;6.528;2023-02-10T06:12:33;47.63;;;30.53;;
9848;SDS011;4963;51.444;6.528;2023-02-10T06:15:00;44.10;;;30.03;;
9848;SDS011;4963;51.444;6.528;2023-02-10T06:17:27;50.43;;;30.30;;
9848;SDS011;4963;51.444;6.528;2023-02-10T06:19:56;51.43;;;30.50;;
9848;SDS011;4963;51.444;6.528;2023-02-10T06:22:23;45.57;;;28.13;;
9848;SDS011;4963;51.444;6.528;2023-02-10T06:24:49;49.20;;;31.00;;
9848;SDS011;4963;51.444;6.528;2023-02-10T06:27:16;46.27;;;30.63;;
9848;SDS011;4963;51.444;6.528;2023-02-10T06:29:44;49.10;;;30.23;;
9848;SDS011;4963;51.444;6.528;2023-02-10T06:32:11;48.67;;;32.40;;
9848;SDS011;4963;51.444;6.528;2023-02-10T06:34:38;48.30;;;33.03;;
9848;SDS011;4963;51.444;6.528;2023-02-10T06:37:06;48.97;;;32.43;;
9848;SDS011;4963;51.444;6.528;2023-02-10T06:39:32;58.53;;;38.73;;
9848;SDS011;4963;51.444;6.528;2023-02-10T06:41:59;47.37;;;32.27;;
9848;SDS011;4963;51.444;6.528;2023-02-10T06:44:26;49.00;;;31.10;;
9848;SDS011;4963;51.444;6.528;2023-02-10T06:46:54;46.10;;;29.60;;
9848;SDS011;4963;51.444;6.528;2023-02-10T06:49:21;46.17;;;30.50;;
9848;SDS011;4963;51.444;6.528;2023-02-10T06:51:48;48.27;;;29.97;;
9848;SDS011;4963;51.444;6.528;2023-02-10T06:54:15;45.27;;;29.77;;
9848;SDS011;4963;51.444;6.528;2023-02-10T06:56:42;51.03;;;32.33;;
9848;SDS011;4963;51.444;6.528;2023-02-10T06:59:11;47.53;;;31.93;;
9848;SDS011;4963;51.444;6.528;2023-02-10T07:01:38;48.87;;;31.47;;
9848;SDS011;4963;51.444;6.528;2023-02-10T07:04:06;47.47;;;29.93;;
9848;SDS011;4963;51.444;6.528;2023-02-10T07:06:33;52.00;;;30.00;;
9848;SDS011;4963;51.444;6.528;2023-02-10T07:09:00;48.43;;;30.70;;
9848;SDS011;4963;51.444;6.528;2023-02-10T07:11:28;50.43;;;31.53;;
9848;SDS011;4963;51.444;6.528;2023-02-10T07:13:55;49.67;;;31.40;;
9848;SDS011;4963;51.444;6.528;2023-02-10T07:16:23;47.57;;;29.33;;
9848;SDS011;4963;51.444;6.528;2023-02-10T07:18:55;45.70;;;30.03;;
9848;SDS011;4963;51.444;6.528;2023-02-10T07:21:23;46.30;;;30.23;;
9848;SDS011;4963;51.444;6.528;2023-02-10T07:23:50;48.63;;;30.57;;
9848;SDS011;4963;51.444;6.528;2023-02-10T07:26:17;52.50;;;30.83;;
9848;SDS011;4963;51.444;6.528;2023-02-10T07:28:44;52.90;;;32.13;;
9848;SDS011;4963;51.444;6.528;2023-02-10T07:31:11;51.80;;;31.20;;
9848;SDS011;4963;51.444;6.528;2023-02-10T07:33:38;48.43;;;31.83;;
9848;SDS011;4963;51.444;6.528;2023-02-10T07:36:06;50.30;;;30.13;;
9848;SDS011;4963;51.444;6.528;2023-02-10T07:38:35;48.57;;;30.50;;
9848;SDS011;4963;51.444;6.528;2023-02-10T07:41:02;51.03;;;32.97;;
9848;SDS011;4963;51.444;6.528;2023-02-10T07:43:30;51.10;;;30.87;;
9848;SDS011;4963;51.444;6.528;2023-02-10T07:45:57;49.03;;;31.73;;
9848;SDS011;4963;51.444;6.528;2023-02-10T07:48:24;49.57;;;31.60;;
9848;SDS011;4963;51.444;6.528;2023-02-10T07:50:51;47.27;;;30.93;;
9848;SDS011;4963;51.444;6.528;2023-02-10T07:53:18;53.13;;;33.40;;
9848;SDS011;4963;51.444;6.528;2023-02-10T07:55:47;51.10;;;33.20;;
9848;SDS011;4963;51.444;6.528;2023-02-10T07:58:14;49.23;;;31.60;;
9848;SDS011;4963;51.444;6.528;2023-02-10T08:00:41;49.83;;;31.53;;
9848;SDS011;4963;51.444;6.528;2023-02-10T08:03:08;54.83;;;34.20;;
9848;SDS011;4963;51.444;6.528;2023-02-10T08:05:38;54.33;;;32.07;;
9848;SDS011;4963;51.444;6.528;2023-02-10T08:08:07;50.83;;;31.67;;
9848;SDS011;4963;51.444;6.528;2023-02-10T08:10:34;47.00;;;31.53;;
9848;SDS011;4963;51.444;6.528;2023-02-10T08:13:03;55.53;;;34.30;;
9848;SDS011;4963;51.444;6.528;2023-02-10T08:15:30;54.13;;;32.53;;
9848;SDS011;4963;51.444;6.528;2023-02-10T08:17:57;52.47;;;32.80;;
9848;SDS011;4963;51.444;6.528;2023-02-10T08:20:24;52.70;;;32.13;;
9848;SDS011;4963;51.444;6.528;2023-02-10T08:22:53;58.73;;;35.00;;
9848;SDS011;4963;51.444;6.528;2023-02-10T08:25:21;58.87;;;35.10;;
9848;SDS011;4963;51.444;6.528;2023-02-10T08:27:48;57.07;;;33.93;;
9848;SDS011;4963;51.444;6.528;2023-02-10T08:30:17;60.57;;;35.43;;
9848;SDS011;4963;51.444;6.528;2023-02-10T08:32:44;64.17;;;35.83;;
9848;SDS011;4963;51.444;6.528;2023-02-10T08:35:11;70.43;;;37.97;;
9848;SDS011;4963;51.444;6.528;2023-02-10T08:37:38;68.00;;;37.80;;
9848;SDS011;4963;51.444;6.528;2023-02-10T08:40:07;69.40;;;36.20;;
9848;SDS011;4963;51.444;6.528;2023-02-10T08:42:39;68.60;;;37.33;;
9848;SDS011;4963;51.444;6.528;2023-02-10T08:45:07;79.07;;;39.57;;
9848;SDS011;4963;51.444;6.528;2023-02-10T08:47:35;67.70;;;37.90;;
9848;SDS011;4963;51.444;6.528;2023-02-10T08:50:02;78.10;;;41.93;;
9848;SDS011;4963;51.444;6.528;2023-02-10T08:52:31;82.47;;;43.93;;
9848;SDS011;4963;51.444;6.528;2023-02-10T08:54:59;95.13;;;51.10;;
9848;SDS011;4963;51.444;6.528;2023-02-10T08:57:26;78.63;;;41.47;;
9848;SDS011;4963;51.444;6.528;2023-02-10T08:59:53;73.60;;;39.37;;
9848;SDS011;4963;51.444;6.528;2023-02-10T09:02:20;73.60;;;39.47;;
9848;SDS011;4963;51.444;6.528;2023-02-10T09:04:49;76.00;;;40.23;;
9848;SDS011;4963;51.444;6.528;2023-02-10T09:07:16;69.03;;;40.43;;
9848;SDS011;4963;51.444;6.528;2023-02-10T09:09:43;70.80;;;38.87;;
9848;SDS011;4963;51.444;6.528;2023-02-10T09:12:10;72.57;;;39.63;;
9848;SDS011;4963;51.444;6.528;2023-02-10T09:14:38;66.53;;;37.80;;
9848;SDS011;4963;51.444;6.528;2023-02-10T09:17:05;71.90;;;39.17;;
9848;SDS011;4963;51.444;6.528;2023-02-10T09:19:33;65.80;;;37.57;;
9848;SDS011;4963;51.444;6.528;2023-02-10T09:22:01;64.97;;;36.60;;
9848;SDS011;4963;51.444;6.528;2023-02-10T09:24:29;62.40;;;34.33;;
9848;SDS011;4963;51.444;6.528;2023-02-10T09:26:56;64.10;;;36.30;;
9848;SDS011;4963;51.444;6.528;2023-02-10T09:29:23;66.27;;;36.07;;
9848;SDS011;4963;51.444;6.528;2023-02-10T09:31:49;62.67;;;35.83;;
9848;SDS011;4963;51.444;6.528;2023-02-10T09:34:16;64.57;;;37.20;;
9848;SDS011;4963;51.444;6.528;2023-02-10T09:36:44;64.80;;;36.63;;
9848;SDS011;4963;51.444;6.528;2023-02-10T09:39:12;66.50;;;37.03;;
9848;SDS011;4963;51.444;6.528;2023-02-10T09:41:45;63.93;;;34.77;;
9848;SDS011;4963;51.444;6.528;2023-02-10T09:44:21;71.53;;;37.57;;
9848;SDS011;4963;51.444;6.528;2023-02-10T09:50:03;61.97;;;35.00;;
9848;SDS011;4963;51.444;6.528;2023-02-10T09:52:43;70.80;;;36.73;;
9848;SDS011;4963;51.444;6.528;2023-02-10T09:55:23;67.63;;;36.97;;
9848;SDS011;4963;51.444;6.528;2023-02-10T09:57:55;71.63;;;39.53;;
9848;SDS011;4963;51.444;6.528;2023-02-10T10:00:27;70.93;;;39.20;;
9848;SDS011;4963;51.444;6.528;2023-02-10T10:02:56;64.50;;;36.83;;
9848;SDS011;4963;51.444;6.528;2023-02-10T10:05:29;64.47;;;36.00;;
9848;SDS011;4963;51.444;6.528;2023-02-10T10:08:09;64.67;;;37.73;;
9848;SDS011;4963;51.444;6.528;2023-02-10T10:10:41;69.87;;;38.07;;
9848;SDS011;4963;51.444;6.528;2023-02-10T10:13:12;62.67;;;34.93;;
9848;SDS011;4963;51.444;6.528;2023-02-10T10:15:44;62.53;;;37.07;;
9848;SDS011;4963;51.444;6.528;2023-02-10T10:18:16;70.43;;;39.27;;
9848;SDS011;4963;51.444;6.528;2023-02-10T10:20:51;61.53;;;34.43;;
9848;SDS011;4963;51.444;6.528;2023-02-10T10:23:29;57.43;;;35.50;;
9848;SDS011;4963;51.444;6.528;2023-02-10T10:26:07;53.17;;;32.87;;
9848;SDS011;4963;51.444;6.528;2023-02-10T10:28:59;55.73;;;34.73;;
9848;SDS011;4963;51.444;6.528;2023-02-10T10:31:33;62.27;;;32.93;;
9848;SDS011;4963;51.444;6.528;2023-02-10T10:34:03;50.43;;;33.17;;
9848;SDS011;4963;51.444;6.528;2023-02-10T10:36:39;55.50;;;34.93;;
9848;SDS011;4963;51.444;6.528;2023-02-10T10:39:10;51.83;;;32.77;;
9848;SDS011;4963;51.444;6.528;2023-02-10T10:41:42;56.73;;;33.27;;
9848;SDS011;4963;51.444;6.528;2023-02-10T10:44:10;55.97;;;33.43;;
9848;SDS011;4963;51.444;6.528;2023-02-10T10:46:43;58.00;;;34.57;;
9848;SDS011;4963;51.444;6.528;2023-02-10T10:49:13;55.87;;;33.40;;
9848;SDS011;4963;51.444;6.528;2023-02-10T10:51:40;53.90;;;32.10;;
9848;SDS011;4963;51.444;6.528;2023-02-10T10:54:10;54.03;;;35.20;;
9848;SDS011;4963;51.444;6.528;2023-02-10T10:56:43;57.43;;;35.47;;
9848;SDS011;4963;51.444;6.528;2023-02-10T10:59:14;56.00;;;33.47;;
9848;SDS011;4963;51.444;6.528;2023-02-10T11:01:44;56.93;;;33.83;;
9848;SDS011;4963;51.444;6.528;2023-02-10T11:04:14;56.80;;;34.00;;
9848;SDS011;4963;51.444;6.528;2023-02-10T11:06:43;52.13;;;33.50;;
9848;SDS011;4963;51.444;6.528;2023-02-10T11:09:22;56.80;;;34.30;;
9848;SDS011;4963;51.444;6.528;2023-02-10T11:11:54;53.53;;;31.57;;
9848;SDS011;4963;51.444;6.528;2023-02-10T11:14:28;55.00;;;32.67;;
9848;SDS011;4963;51.444;6.528;2023-02-10T11:17:02;56.57;;;30.80;;
9848;SDS011;4963;51.444;6.528;2023-02-10T11:19:30;55.13;;;32.67;;
9848;SDS011;4963;51.444;6.528;2023-02-10T11:21:59;47.30;;;31.23;;
9848;SDS011;4963;51.444;6.528;2023-02-10T11:24:27;54.60;;;33.13;;
9848;SDS011;4963;51.444;6.528;2023-02-10T11:26:58;51.57;;;30.87;;
9848;SDS011;4963;51.444;6.528;2023-02-10T11:29:27;56.73;;;33.03;;
9848;SDS011;4963;51.444;6.528;2023-02-10T11:31:55;49.07;;;29.80;;
9848;SDS011;4963;51.444;6.528;2023-02-10T11:34:24;53.87;;;32.33;;
9848;SDS011;4963;51.444;6.528;2023-02-10T11:36:53;54.40;;;33.70;;
9848;SDS011;4963;51.444;6.528;2023-02-10T11:39:22;52.73;;;31.33;;
9848;SDS011;4963;51.444;6.528;2023-02-10T11:41:52;53.30;;;31.47;;
9848;SDS011;4963;51.444;6.528;2023-02-10T11:44:22;55.13;;;31.23;;
9848;SDS011;4963;51.444;6.528;2023-02-10T11:46:55;46.37;;;28.70;;
9848;SDS011;4963;51.444;6.528;2023-02-10T11:49:23;50.07;;;28.27;;
9848;SDS011;4963;51.444;6.528;2023-02-10T11:51:53;46.40;;;27.63;;
9848;SDS011;4963;51.444;6.528;2023-02-10T11:54:21;47.50;;;28.03;;
9848;SDS011;4963;51.444;6.528;2023-02-10T11:56:51;48.07;;;27.27;;
9848;SDS011;4963;51.444;6.528;2023-02-10T11:59:50;45.63;;;27.57;;
9848;SDS011;4963;51.444;6.528;2023-02-10T12:02:25;41.30;;;26.73;;
9848;SDS011;4963;51.444;6.528;2023-02-10T12:05:07;43.13;;;24.97;;
9848;SDS011;4963;51.444;6.528;2023-02-10T12:07:46;46.83;;;26.77;;
9848;SDS011;4963;51.444;6.528;2023-02-10T12:10:25;43.43;;;26.47;;
9848;SDS011;4963;51.444;6.528;2023-02-10T12:12:58;42.53;;;24.43;;
9848;SDS011;4963;51.444;6.528;2023-02-10T12:15:41;41.83;;;23.87;;
9848;SDS011;4963;51.444;6.528;2023-02-10T12:18:22;40.23;;;23.73;;
9848;SDS011;4963;51.444;6.528;2023-02-10T12:21:01;40.80;;;24.50;;
9848;SDS011;4963;51.444;6.528;2023-02-10T12:23:44;41.90;;;23.80;;
9848;SDS011;4963;51.444;6.528;2023-02-10T12:26:21;43.03;;;24.30;;
9848;SDS011;4963;51.444;6.528;2023-02-10T12:28:56;43.23;;;22.10;;
9848;SDS011;4963;51.444;6.528;2023-02-10T12:31:34;30.70;;;19.53;;
9848;SDS011;4963;51.444;6.528;2023-02-10T12:37:13;33.03;;;18.03;;
9848;SDS011;4963;51.444;6.528;2023-02-10T12:39:47;28.43;;;17.07;;
9848;SDS011;4963;51.444;6.528;2023-02-10T12:42:29;27.40;;;16.27;;
9848;SDS011;4963;51.444;6.528;2023-02-10T12:45:11;32.63;;;16.77;;
9848;SDS011;4963;51.444;6.528;2023-02-10T12:47:54;28.43;;;16.43;;
9848;SDS011;4963;51.444;6.528;2023-02-10T12:50:32;30.77;;;16.67;;
9848;SDS011;4963;51.444;6.528;2023-02-10T12:53:07;31.00;;;17.57;;
9848;SDS011;4963;51.444;6.528;2023-02-10T12:55:42;27.30;;;16.47;;
9848;SDS011;4963;51.444;6.528;2023-02-10T12:58:16;30.70;;;17.00;;
9848;SDS011;4963;51.444;6.528;2023-02-10T13:00:47;30.43;;;16.47;;
9848;SDS011;4963;51.444;6.528;2023-02-10T13:03:19;28.43;;;16.80;;
9848;SDS011;4963;51.444;6.528;2023-02-10T13:05:52;26.57;;;16.03;;
9848;SDS011;4963;51.444;6.528;2023-02-10T13:08:26;28.50;;;16.67;;
9848;SDS011;4963;51.444;6.528;2023-02-10T13:10:59;30.93;;;14.80;;
9848;SDS011;4963;51.444;6.528;2023-02-10T13:13:32;28.17;;;14.37;;
9848;SDS011;4963;51.444;6.528;2023-02-10T13:16:02;28.57;;;15.07;;
9848;SDS011;4963;51.444;6.528;2023-02-10T13:18:35;31.47;;;16.37;;
9848;SDS011;4963;51.444;6.528;2023-02-10T13:21:11;27.47;;;15.43;;
9848;SDS011;4963;51.444;6.528;2023-02-10T13:23:44;26.07;;;15.93;;
9848;SDS011;4963;51.444;6.528;2023-02-10T13:29:11;28.27;;;17.60;;
9848;SDS011;4963;51.444;6.528;2023-02-10T13:31:47;29.47;;;15.70;;
9848;SDS011;4963;51.444;6.528;2023-02-10T13:34:28;29.93;;;16.13;;
9848;SDS011;4963;51.444;6.528;2023-02-10T13:37:00;28.33;;;16.87;;
9848;SDS011;4963;51.444;6.528;2023-02-10T13:39:32;26.97;;;18.17;;
9848;SDS011;4963;51.444;6.528;2023-02-10T13:42:04;31.43;;;17.80;;
9848;SDS011;4963;51.444;6.528;2023-02-10T13:44:35;37.10;;;18.13;;
9848;SDS011;4963;51.444;6.528;2023-02-10T13:47:11;29.63;;;18.00;;
9848;SDS011;4963;51.444;6.528;2023-02-10T13:49:50;30.60;;;18.97;;
9848;SDS011;4963;51.444;6.528;2023-02-10T13:52:21;31.73;;;19.70;;
9848;SDS011;4963;51.444;6.528;2023-02-10T13:54:54;33.67;;;21.60;;
9848;SDS011;4963;51.444;6.528;2023-02-10T13:57:24;37.73;;;22.17;;
9848;SDS011;4963;51.444;6.528;2023-02-10T13:59:53;37.83;;;22.83;;
9848;SDS011;4963;51.444;6.528;2023-02-10T14:02:30;33.17;;;21.37;;
9848;SDS011;4963;51.444;6.528;2023-02-10T14:04:58;33.33;;;22.27;;
9848;SDS011;4963;51.444;6.528;2023-02-10T14:07:31;31.60;;;22.33;;
9848;SDS011;4963;51.444;6.528;2023-02-10T14:10:00;36.97;;;23.00;;
9848;SDS011;4963;51.444;6.528;2023-02-10T14:12:30;37.53;;;23.30;;
9848;SDS011;4963;51.444;6.528;2023-02-10T14:15:12;35.40;;;22.90;;
9848;SDS011;4963;51.444;6.528;2023-02-10T14:17:52;39.90;;;23.37;;
9848;SDS011;4963;51.444;6.528;2023-02-10T14:20:25;34.27;;;24.10;;
9848;SDS011;4963;51.444;6.528;2023-02-10T14:22:55;32.97;;;22.87;;
9848;SDS011;4963;51.444;6.528;2023-02-10T14:25:27;35.27;;;23.67;;
9848;SDS011;4963;51.444;6.528;2023-02-10T14:27:57;41.30;;;25.93;;
9848;SDS011;4963;51.444;6.528;2023-02-10T14:30:26;35.93;;;24.13;;
9848;SDS011;4963;51.444;6.528;2023-02-10T14:32:58;40.90;;;24.33;;
9848;SDS011;4963;51.444;6.528;2023-02-10T14:35:27;40.20;;;24.80;;
9848;SDS011;4963;51.444;6.528;2023-02-10T14:37:56;33.73;;;23.17;;
9848;SDS011;4963;51.444;6.528;2023-02-10T14:40:26;39.57;;;26.30;;
9848;SDS011;4963;51.444;6.528;2023-02-10T14:42:54;35.73;;;25.13;;
9848;SDS011;4963;51.444;6.528;2023-02-10T14:45:29;36.57;;;24.50;;
9848;SDS011;4963;51.444;6.528;2023-02-10T14:47:59;37.90;;;25.07;;
9848;SDS011;4963;51.444;6.528;2023-02-10T14:50:28;37.73;;;23.83;;
9848;SDS011;4963;51.444;6.528;2023-02-10T14:52:56;35.07;;;21.83;;
9848;SDS011;4963;51.444;6.528;2023-02-10T14:55:25;35.37;;;24.63;;
9848;SDS011;4963;51.444;6.528;2023-02-10T14:57:56;35.13;;;22.47;;
9848;SDS011;4963;51.444;6.528;2023-02-10T15:00:28;30.13;;;21.30;;
9848;SDS011;4963;51.444;6.528;2023-02-10T15:02:56;32.40;;;20.50;;
9848;SDS011;4963;51.444;6.528;2023-02-10T15:05:25;28.70;;;19.63;;
9848;SDS011;4963;51.444;6.528;2023-02-10T15:07:57;35.10;;;20.77;;
9848;SDS011;4963;51.444;6.528;2023-02-10T15:10:26;30.93;;;20.70;;
9848;SDS011;4963;51.444;6.528;2023-02-10T15:12:56;27.43;;;20.20;;
9848;SDS011;4963;51.444;6.528;2023-02-10T15:15:25;29.13;;;18.80;;
9848;SDS011;4963;51.444;6.528;2023-02-10T15:17:55;28.43;;;20.43;;
9848;SDS011;4963;51.444;6.528;2023-02-10T15:20:25;34.40;;;20.67;;